createdAt,value
2023-04-25T00:01:06.826Z,0.00
2023-04-25T00:06:06.729Z,0.00
2023-04-25T00:11:06.681Z,0.00
2023-04-25T00:16:06.658Z,0.00
2023-04-25T00:21:06.556Z,0.00
2023-04-25T00:26:06.481Z,0.00
2023-04-25T00:31:06.424Z,0.00
2023-04-25T00:36:06.335Z,0.00
2023-04-25T00:41:06.292Z,0.00
2023-04-25T00:46:06.215Z,0.00
2023-04-25T00:51:06.166Z,0.00
2023-04-25T00:56:06.074Z,0.00
2023-04-25T01:01:06.046Z,0.00
2023-04-25T01:06:05.954Z,0.00
2023-04-25T01:11:05.880Z,0.00
2023-04-25T01:16:05.814Z,0.00
2023-04-25T01:21:05.757Z,0.00
2023-04-25T01:26:05.680Z,0.00
2023-04-25T01:31:05.623Z,0.00
2023-04-25T01:36:05.553Z,0.00
2023-04-25T01:41:05.492Z,0.00
2023-04-25T01:46:05.460Z,0.00
2023-04-25T01:51:05.365Z,0.00
2023-04-25T01:56:05.291Z,0.00
2023-04-25T02:01:05.296Z,0.00
2023-04-25T02:06:05.174Z,0.00
2023-04-25T02:11:05.103Z,0.00
2023-04-25T02:16:05.115Z,0.00
2023-04-25T02:21:04.978Z,0.00
2023-04-25T02:26:04.899Z,0.00
2023-04-25T02:31:04.915Z,0.00
2023-04-25T02:36:04.774Z,0.00
2023-04-25T02:41:04.712Z,0.00
2023-04-25T02:46:04.788Z,0.00
2023-04-25T02:51:04.589Z,0.00
2023-04-25T02:56:04.513Z,0.00
2023-04-25T03:01:04.479Z,0.00
2023-04-25T03:06:04.380Z,0.00
2023-04-25T03:11:04.313Z,0.00
2023-04-25T03:16:04.305Z,0.00
2023-04-25T03:21:04.180Z,4.00
2023-04-25T03:26:04.094Z,0.00
2023-04-25T03:31:04.045Z,8.00
2023-04-25T03:36:03.957Z,16.00
2023-04-25T03:41:03.917Z,36.00
2023-04-25T03:46:03.906Z,68.00
2023-04-25T03:51:03.765Z,136.00
2023-04-25T03:56:03.697Z,236.00
2023-04-25T04:01:03.636Z,408.00
2023-04-25T04:06:03.559Z,648.00
2023-04-25T04:11:03.504Z,928.00
2023-04-25T04:16:03.453Z,1880.00
2023-04-25T04:21:03.392Z,2772.00
2023-04-25T04:26:03.293Z,3720.00
2023-04-25T04:31:03.289Z,4460.00
2023-04-25T04:36:03.164Z,5288.00
2023-04-25T04:41:03.105Z,6064.00
2023-04-25T04:46:03.042Z,6432.00
2023-04-25T04:51:02.972Z,7232.00
2023-04-25T04:56:02.907Z,7524.00
2023-04-25T05:01:02.864Z,7908.00
2023-04-25T05:06:02.777Z,8512.00
2023-04-25T05:11:02.714Z,9348.00
2023-04-25T05:16:02.666Z,10216.00
2023-04-25T05:21:02.590Z,11108.00
2023-04-25T05:26:02.510Z,12648.00
2023-04-25T05:31:02.454Z,13984.00
2023-04-25T05:36:02.381Z,35296.00
2023-04-25T05:41:02.325Z,42304.00
2023-04-25T05:46:02.342Z,35008.00
2023-04-25T05:51:02.177Z,46944.00
2023-04-25T05:56:02.112Z,53408.00
2023-04-25T06:01:02.056Z,51616.00
2023-04-25T06:06:02.108Z,57024.00
2023-04-25T06:11:01.914Z,50720.00
2023-04-25T06:16:01.873Z,50304.00
2023-04-25T06:21:01.782Z,67840.00
2023-04-25T06:26:01.712Z,71424.00
2023-04-25T06:31:01.704Z,68384.00
2023-04-25T06:36:01.579Z,9540.00
2023-04-25T06:41:01.533Z,9676.00
2023-04-25T06:46:01.440Z,5880.00
2023-04-25T06:51:01.393Z,4040.00
2023-04-25T06:56:01.367Z,3688.00
2023-04-25T07:01:01.366Z,3760.00
2023-04-25T07:06:01.202Z,3656.00
2023-04-25T07:11:01.131Z,3820.00
2023-04-25T07:16:01.116Z,3520.00
2023-04-25T07:21:00.996Z,3264.00
2023-04-25T07:26:00.932Z,3088.00
2023-04-25T07:31:00.867Z,3132.00
2023-04-25T07:36:00.806Z,4476.00
2023-04-25T07:41:00.743Z,4948.00
2023-04-25T07:46:00.692Z,4112.00
2023-04-25T07:51:00.597Z,3604.00
2023-04-25T07:56:00.528Z,3332.00
2023-04-25T08:01:00.469Z,3484.00
2023-04-25T08:06:00.721Z,2564.00
2023-04-25T08:11:00.344Z,2564.00
2023-04-25T08:16:00.304Z,2888.00
2023-04-25T08:21:00.207Z,3276.00
2023-04-25T08:26:00.145Z,3084.00
2023-04-25T08:31:00.184Z,2104.00
2023-04-25T08:36:00.014Z,2728.00
2023-04-25T08:41:00.120Z,3128.00
2023-04-25T08:45:59.884Z,2704.00
2023-04-25T08:50:59.813Z,2700.00
2023-04-25T08:55:59.758Z,2304.00
2023-04-25T09:00:59.691Z,1964.00
2023-04-25T09:05:59.622Z,2012.00
2023-04-25T09:10:59.550Z,1960.00
2023-04-25T09:15:59.507Z,2824.00
2023-04-25T09:21:01.934Z,3416.00
2023-04-25T09:25:59.336Z,4656.00
2023-04-25T09:30:59.280Z,4568.00
2023-04-25T09:35:59.204Z,4312.00
2023-04-25T09:40:59.160Z,4120.00
2023-04-25T09:45:59.297Z,4788.00
2023-04-25T09:50:59.016Z,5468.00
2023-04-25T09:55:58.953Z,4436.00
2023-04-25T10:00:58.889Z,4860.00
2023-04-25T10:05:58.820Z,4028.00
2023-04-25T10:10:58.751Z,3360.00
2023-04-25T10:15:58.698Z,3460.00
2023-04-25T10:20:58.627Z,4104.00
2023-04-25T10:25:58.561Z,4324.00
2023-04-25T10:30:58.692Z,4576.00
2023-04-25T10:35:58.410Z,4984.00
2023-04-25T10:40:58.369Z,4312.00
2023-04-25T10:45:58.288Z,5440.00
2023-04-25T10:50:58.235Z,7880.00
2023-04-25T10:55:58.148Z,8904.00
2023-04-25T11:00:58.149Z,10212.00
2023-04-25T11:05:58.602Z,8928.00
2023-04-25T11:10:57.956Z,10068.00
2023-04-25T11:16:07.193Z,15216.00
2023-04-25T11:20:58.850Z,10376.00
2023-04-25T11:25:57.763Z,11296.00
2023-04-25T11:30:57.696Z,7492.00
2023-04-25T11:35:57.631Z,9932.00
2023-04-25T11:40:57.564Z,9308.00
2023-04-25T11:45:57.589Z,7672.00
2023-04-25T11:50:57.647Z,8712.00
2023-04-25T11:55:57.386Z,9484.00
2023-04-25T12:00:57.305Z,9848.00
2023-04-25T12:05:57.338Z,8816.00
2023-04-25T12:10:57.176Z,14148.00
2023-04-25T12:15:57.153Z,15992.00
2023-04-25T12:20:57.069Z,15128.00
2023-04-25T12:25:56.990Z,13000.00
2023-04-25T12:30:56.942Z,10756.00
2023-04-25T12:35:56.835Z,12564.00
2023-04-25T12:40:56.770Z,10016.00
2023-04-25T12:45:56.705Z,6496.00
2023-04-25T12:50:56.682Z,5596.00
2023-04-25T12:55:56.751Z,4624.00
2023-04-25T13:00:56.603Z,4296.00
2023-04-25T13:05:56.470Z,5100.00
2023-04-25T13:10:56.413Z,7688.00
2023-04-25T13:15:56.310Z,9820.00
2023-04-25T13:20:56.253Z,12632.00
2023-04-25T13:25:56.178Z,11772.00
2023-04-25T13:30:56.149Z,10272.00
2023-04-25T13:35:56.036Z,11096.00
2023-04-25T13:40:55.992Z,12912.00
2023-04-25T13:45:55.971Z,12928.00
2023-04-25T13:50:55.847Z,12328.00
2023-04-25T13:55:55.773Z,12740.00
2023-04-25T14:00:55.712Z,11960.00
2023-04-25T14:05:55.636Z,10180.00
2023-04-25T14:10:55.582Z,9768.00
2023-04-25T14:15:55.533Z,9100.00
2023-04-25T14:20:55.459Z,8256.00
2023-04-25T14:25:55.399Z,7160.00
2023-04-25T14:30:55.367Z,8924.00
2023-04-25T14:35:55.248Z,8280.00
2023-04-25T14:40:55.205Z,7040.00
2023-04-25T14:45:56.910Z,7200.00
2023-04-25T14:50:55.071Z,8136.00
2023-04-25T14:55:55.050Z,8360.00
2023-04-25T15:00:54.975Z,8496.00
2023-04-25T15:05:54.858Z,8044.00
2023-04-25T15:10:54.818Z,6808.00
2023-04-25T15:15:54.765Z,7280.00
2023-04-25T15:20:54.698Z,7456.00
2023-04-25T15:25:54.619Z,7756.00
2023-04-25T15:30:54.555Z,7024.00
2023-04-25T15:35:54.524Z,6368.00
2023-04-25T15:40:54.424Z,5880.00
2023-04-25T15:45:54.370Z,6336.00
2023-04-25T15:50:54.274Z,5880.00
2023-04-25T15:55:54.208Z,5380.00
2023-04-25T16:00:54.138Z,5792.00
2023-04-25T16:05:54.072Z,4540.00
2023-04-25T16:10:54.015Z,4820.00
2023-04-25T16:15:53.959Z,4180.00
2023-04-25T16:20:53.877Z,4224.00
2023-04-25T16:25:53.803Z,3624.00
2023-04-25T16:30:53.763Z,3288.00
2023-04-25T16:35:53.692Z,3084.00
2023-04-25T16:40:53.626Z,2696.00
2023-04-25T16:45:53.562Z,2732.00
2023-04-25T16:50:53.492Z,2920.00
2023-04-25T16:55:53.406Z,2968.00
2023-04-25T17:00:53.404Z,2208.00
2023-04-25T17:05:53.275Z,1920.00
2023-04-25T17:10:53.218Z,1948.00
2023-04-25T17:15:53.144Z,1960.00
2023-04-25T17:20:53.086Z,1892.00
2023-04-25T17:25:53.056Z,1748.00
2023-04-25T17:30:53.008Z,1448.00
2023-04-25T17:35:52.880Z,1272.00
2023-04-25T17:40:52.817Z,1168.00
2023-04-25T17:45:52.767Z,1060.00
2023-04-25T17:50:52.689Z,920.00
2023-04-25T17:55:52.621Z,792.00
2023-04-25T18:00:52.571Z,692.00
2023-04-25T18:05:52.497Z,556.00
2023-04-25T18:10:52.425Z,432.00
2023-04-25T18:15:52.408Z,316.00
2023-04-25T18:20:52.470Z,212.00
2023-04-25T18:25:52.219Z,132.00
2023-04-25T18:30:52.179Z,76.00
2023-04-25T18:41:00.119Z,16.00
2023-04-25T18:45:53.038Z,4.00
2023-04-25T18:50:51.910Z,0.00
2023-04-25T18:55:51.843Z,0.00
2023-04-25T19:00:51.886Z,0.00
2023-04-25T19:05:51.723Z,0.00
2023-04-25T19:10:51.668Z,0.00
2023-04-25T19:15:51.567Z,0.00
2023-04-25T19:20:51.505Z,0.00
2023-04-25T19:25:51.437Z,0.00
2023-04-25T19:30:51.501Z,0.00
2023-04-25T19:35:51.303Z,0.00
2023-04-25T19:40:51.249Z,0.00
2023-04-25T19:45:51.202Z,0.00
2023-04-25T19:50:51.117Z,0.00
2023-04-25T19:55:51.072Z,0.00
2023-04-25T20:00:50.991Z,0.00
2023-04-25T20:05:50.919Z,0.00
2023-04-25T20:10:50.856Z,0.00
2023-04-25T20:15:50.831Z,0.00
2023-04-25T20:20:50.722Z,0.00
2023-04-25T20:25:50.671Z,0.00
2023-04-25T20:30:50.619Z,0.00
2023-04-25T20:35:50.577Z,0.00
2023-04-25T20:40:50.454Z,0.00
2023-04-25T20:45:50.513Z,0.00
2023-04-25T20:50:50.326Z,0.00
2023-04-25T20:55:50.279Z,0.00
2023-04-25T21:00:50.212Z,0.00
2023-04-25T21:05:50.155Z,0.00
2023-04-25T21:10:50.078Z,0.00
2023-04-25T21:15:50.014Z,0.00
2023-04-25T21:20:49.933Z,0.00
2023-04-25T21:25:49.877Z,0.00
2023-04-25T21:30:49.861Z,0.00
2023-04-25T21:35:49.744Z,0.00
2023-04-25T21:40:49.679Z,0.00
2023-04-25T21:46:11.453Z,0.00
2023-04-25T21:50:50.568Z,0.00
2023-04-25T21:55:49.496Z,0.00
2023-04-25T22:00:49.414Z,0.00
2023-04-25T22:05:49.362Z,0.00
2023-04-25T22:10:49.281Z,0.00
2023-04-25T22:15:49.292Z,0.00
2023-04-25T22:20:49.147Z,0.00
2023-04-25T22:25:49.098Z,0.00
2023-04-25T22:30:49.014Z,0.00
2023-04-25T22:35:48.956Z,0.00
2023-04-25T22:40:48.894Z,0.00
2023-04-25T22:45:48.915Z,0.00
2023-04-25T22:50:48.747Z,0.00
2023-04-25T22:55:48.702Z,0.00
2023-04-25T23:00:48.646Z,0.00
2023-04-25T23:05:48.559Z,0.00
2023-04-25T23:10:48.487Z,0.00
2023-04-25T23:15:48.458Z,0.00
2023-04-25T23:20:48.358Z,0.00
2023-04-25T23:25:48.294Z,0.00
2023-04-25T23:30:48.265Z,0.00
2023-04-25T23:35:48.173Z,0.00
2023-04-25T23:40:48.083Z,0.00
2023-04-25T23:45:48.063Z,0.00
2023-04-25T23:50:47.969Z,0.00
2023-04-25T23:55:47.900Z,0.00
